Maresias, Brazil
Current Conditions -  °F | °C
As of 8:00 PM on Friday 31 Oct 2014 (Local Time) from SBSJ Reporting Station
Drizzle Drizzle  
Wind Chill: 75°   Ceiling: 3000
Heat Index: 75°   Visibility: 6mi
Dew Point: 68°   Wind: 3mph
Humidity: 78%   Direction: 90°E
Pressure: 30"   Gusts: NA
Location:  23.8°S, 45.55°W
Report Text: SBSJ 312200Z 09003KT 9999 -DZ SCT025 BKN030 24/20 Q1016
Loading
Personal Weather Stations






























Interactive Weather Map
Tropical Storm Tracking
New forecast layout! Learn more

10-Day Weather Forecast

Advertisements
Track Severe Weather on mobile